createdAt,value
2022-08-14T00:00:27.636Z,26.10
2022-08-14T00:03:32.864Z,25.93
2022-08-14T00:06:28.422Z,25.61
2022-08-14T00:09:20.374Z,25.54
2022-08-14T00:12:02.243Z,25.38
2022-08-14T00:14:54.805Z,25.30
2022-08-14T00:17:38.058Z,25.00
2022-08-14T00:20:42.963Z,25.01
2022-08-14T00:23:24.645Z,24.89
2022-08-14T00:26:21.658Z,24.61
2022-08-14T00:29:04.654Z,24.45
2022-08-14T00:31:56.058Z,24.22
2022-08-14T00:34:46.654Z,24.15
2022-08-14T00:37:35.433Z,24.16
2022-08-14T00:40:33.321Z,24.21
2022-08-14T00:43:25.454Z,24.02
2022-08-14T00:46:32.699Z,23.94
2022-08-14T00:49:22.750Z,24.08
2022-08-14T00:52:07.277Z,24.06
2022-08-14T00:54:58.262Z,24.06
2022-08-14T00:57:41.276Z,23.85
2022-08-14T01:00:47.335Z,23.90
2022-08-14T01:03:45.780Z,24.05
2022-08-14T01:06:34.256Z,23.87
2022-08-14T01:09:22.304Z,23.93
2022-08-14T01:12:04.936Z,23.82
2022-08-14T01:14:52.288Z,23.83
2022-08-14T01:17:54.191Z,23.76
2022-08-14T01:21:02.399Z,23.81
2022-08-14T01:23:47.626Z,23.76
2022-08-14T01:26:38.842Z,23.78
2022-08-14T01:29:43.119Z,23.79
2022-08-14T01:32:29.970Z,23.79
2022-08-14T01:35:17.791Z,23.90
2022-08-14T01:38:08.913Z,23.70
2022-08-14T01:40:53.451Z,23.73
2022-08-14T01:43:57.671Z,23.53
2022-08-14T01:46:46.363Z,23.50
2022-08-14T01:49:59.360Z,23.62
2022-08-14T01:52:58.974Z,23.64
2022-08-14T01:55:48.698Z,23.57
2022-08-14T01:58:33.176Z,23.62
2022-08-14T02:01:30.415Z,23.70
2022-08-14T02:04:40.630Z,23.71
2022-08-14T02:07:34.479Z,23.68
2022-08-14T02:10:30.884Z,23.63
2022-08-14T02:13:16.216Z,23.71
2022-08-14T02:16:22.136Z,23.71
2022-08-14T02:19:04.295Z,24.01
2022-08-14T02:21:56.664Z,24.06
2022-08-14T02:24:45.344Z,23.99
2022-08-14T02:28:22.753Z,23.72
2022-08-14T02:30:39.078Z,23.49
2022-08-14T02:33:29.379Z,23.14
2022-08-14T02:37:02.507Z,22.84
2022-08-14T02:39:24.460Z,22.64
2022-08-14T02:42:12.999Z,22.53
2022-08-14T02:45:00.947Z,22.41
2022-08-14T02:47:47.375Z,22.27
2022-08-14T02:50:40.098Z,22.11
2022-08-14T02:53:23.857Z,22.05
2022-08-14T02:57:13.643Z,22.12
2022-08-14T03:02:56.135Z,22.02
2022-08-14T03:05:41.856Z,22.28
2022-08-14T03:08:31.929Z,22.23
2022-08-14T03:11:20.707Z,22.26
2022-08-14T03:14:04.983Z,22.43
2022-08-14T03:16:53.850Z,22.43
2022-08-14T03:19:36.120Z,22.37
2022-08-14T03:22:31.479Z,22.50
2022-08-14T03:25:12.512Z,22.69
2022-08-14T03:28:02.852Z,22.73
2022-08-14T03:30:44.223Z,22.72
2022-08-14T03:33:37.407Z,22.75
2022-08-14T03:37:52.074Z,22.65
2022-08-14T03:39:31.456Z,22.46
2022-08-14T03:42:19.191Z,22.28
2022-08-14T03:45:26.540Z,22.02
2022-08-14T03:48:30.633Z,21.97
2022-08-14T03:51:20.403Z,21.86
2022-08-14T03:54:08.252Z,21.60
2022-08-14T03:57:02.969Z,21.38
2022-08-14T03:59:44.474Z,21.22
2022-08-14T04:02:47.180Z,21.02
2022-08-14T04:05:43.057Z,20.79
2022-08-14T04:08:31.827Z,20.86
2022-08-14T04:11:19.563Z,20.84
2022-08-14T04:14:02.878Z,20.68
2022-08-14T04:16:52.637Z,20.86
2022-08-14T04:19:36.523Z,20.73
2022-08-14T04:22:25.278Z,20.68
2022-08-14T04:25:07.760Z,20.68
2022-08-14T04:28:02.254Z,20.66
2022-08-14T04:30:47.519Z,20.77
2022-08-14T04:33:34.508Z,20.60
2022-08-14T04:36:17.564Z,20.60
2022-08-14T04:39:24.871Z,20.58
2022-08-14T04:42:24.420Z,20.54
2022-08-14T04:45:15.225Z,20.55
2022-08-14T04:48:39.345Z,20.59
2022-08-14T04:51:27.972Z,20.70
2022-08-14T04:54:10.410Z,20.85
2022-08-14T04:57:02.517Z,20.83
2022-08-14T04:59:45.421Z,20.79
2022-08-14T05:02:41.525Z,20.94
2022-08-14T05:05:33.111Z,20.98
2022-08-14T05:08:32.292Z,20.82
2022-08-14T05:11:26.435Z,20.54
2022-08-14T05:14:34.127Z,20.57
2022-08-14T05:17:18.419Z,20.55
2022-08-14T05:21:04.282Z,20.67
2022-08-14T05:23:06.821Z,20.58
2022-08-14T05:25:55.505Z,20.75
2022-08-14T05:28:43.458Z,20.68
2022-08-14T05:31:39.522Z,20.83
2022-08-14T05:34:28.929Z,20.69
2022-08-14T05:37:15.639Z,20.75
2022-08-14T05:40:04.704Z,20.59
2022-08-14T05:42:46.553Z,20.44
2022-08-14T05:45:42.432Z,20.44
2022-08-14T05:48:33.445Z,20.42
2022-08-14T05:51:22.958Z,20.62
2022-08-14T05:54:13.735Z,20.49
2022-08-14T05:57:12.443Z,20.44
2022-08-14T06:00:24.386Z,20.46
2022-08-14T06:03:31.187Z,20.51
2022-08-14T06:06:18.594Z,20.50
2022-08-14T06:08:59.945Z,20.59
2022-08-14T06:11:49.752Z,20.59
2022-08-14T06:14:31.489Z,20.61
2022-08-14T06:17:25.803Z,20.66
2022-08-14T06:20:07.854Z,20.73
2022-08-14T06:22:57.637Z,20.80
2022-08-14T06:25:40.834Z,20.89
2022-08-14T06:28:32.572Z,20.93
2022-08-14T06:31:16.464Z,20.95
2022-08-14T06:35:09.737Z,21.01
2022-08-14T06:37:04.866Z,21.07
2022-08-14T06:39:51.630Z,21.08
2022-08-14T06:42:34.482Z,21.10
2022-08-14T06:45:27.723Z,21.14
2022-08-14T06:48:12.769Z,21.22
2022-08-14T06:51:01.575Z,21.35
2022-08-14T06:53:42.470Z,21.36
2022-08-14T06:56:32.760Z,21.49
2022-08-14T06:59:19.577Z,21.60
2022-08-14T07:02:32.486Z,21.74
2022-08-14T07:05:42.233Z,21.93
2022-08-14T07:08:39.505Z,21.99
2022-08-14T07:11:26.901Z,22.05
2022-08-14T07:14:07.613Z,22.01
2022-08-14T07:16:56.860Z,21.93
2022-08-14T07:19:38.451Z,21.98
2022-08-14T07:22:33.032Z,22.00
2022-08-14T07:25:32.766Z,22.05
2022-08-14T07:28:22.495Z,22.14
2022-08-14T07:31:06.437Z,22.17
2022-08-14T07:33:55.504Z,22.26
2022-08-14T07:36:38.616Z,22.36
2022-08-14T07:39:46.354Z,22.52
2022-08-14T07:42:31.389Z,22.62
2022-08-14T07:45:20.895Z,22.60
2022-08-14T07:48:03.612Z,22.66
2022-08-14T07:50:56.184Z,22.75
2022-08-14T07:53:43.402Z,22.64
2022-08-14T07:56:47.062Z,22.60
2022-08-14T07:59:42.488Z,22.58
2022-08-14T08:02:37.558Z,22.45
2022-08-14T08:05:24.396Z,22.35
2022-08-14T08:08:27.443Z,22.40
2022-08-14T08:11:14.832Z,22.44
2022-08-14T08:14:04.528Z,22.59
2022-08-14T08:16:47.538Z,22.66
2022-08-14T08:19:39.825Z,22.72
2022-08-14T08:22:22.083Z,22.74
2022-08-14T08:25:13.451Z,22.60
2022-08-14T08:28:25.085Z,22.73
2022-08-14T08:31:14.923Z,22.71
2022-08-14T08:34:01.000Z,22.71
2022-08-14T08:36:49.841Z,22.34
2022-08-14T08:40:01.563Z,22.17
2022-08-14T08:42:44.892Z,21.91
2022-08-14T08:45:27.933Z,21.76
2022-08-14T08:48:20.645Z,21.99
2022-08-14T08:51:11.927Z,21.87
2022-08-14T08:54:09.843Z,21.96
2022-08-14T08:56:58.103Z,21.81
2022-08-14T08:59:46.576Z,21.92
2022-08-14T09:02:44.843Z,22.15
2022-08-14T09:05:26.162Z,22.02
2022-08-14T09:08:33.292Z,22.00
2022-08-14T09:11:20.913Z,21.97
2022-08-14T09:14:09.742Z,21.86
2022-08-14T09:16:52.446Z,21.96
2022-08-14T09:19:43.696Z,22.15
2022-08-14T09:22:36.167Z,22.36
2022-08-14T09:26:00.547Z,22.30
2022-08-14T09:28:27.435Z,22.35
2022-08-14T09:31:18.297Z,22.48
2022-08-14T09:34:26.950Z,22.69
2022-08-14T09:38:00.193Z,22.48
2022-08-14T09:40:53.319Z,22.39
2022-08-14T09:44:15.741Z,22.46
2022-08-14T09:47:08.081Z,22.42
2022-08-14T09:50:00.529Z,22.09
2022-08-14T09:52:58.851Z,22.25
2022-08-14T09:55:46.742Z,22.17
2022-08-14T09:58:53.952Z,22.43
2022-08-14T10:01:52.919Z,22.28
2022-08-14T10:04:46.035Z,22.22
2022-08-14T10:07:36.693Z,22.16
2022-08-14T10:10:40.489Z,22.38
2022-08-14T10:13:42.939Z,22.21
2022-08-14T10:16:50.749Z,22.25
2022-08-14T10:19:35.751Z,22.16
2022-08-14T10:23:12.651Z,22.15
2022-08-14T10:25:35.907Z,22.25
2022-08-14T10:28:51.524Z,22.18
2022-08-14T10:31:44.697Z,22.01
2022-08-14T10:34:42.766Z,21.83
2022-08-14T10:37:27.849Z,21.83
2022-08-14T10:40:37.861Z,21.75
2022-08-14T10:43:31.634Z,21.69
2022-08-14T10:47:40.691Z,21.72
2022-08-14T10:49:34.302Z,21.64
2022-08-14T10:52:30.955Z,21.46
2022-08-14T10:55:14.728Z,21.40
2022-08-14T10:58:07.004Z,21.37
2022-08-14T11:00:56.686Z,21.38
2022-08-14T11:03:56.244Z,21.30
2022-08-14T11:06:43.772Z,21.52
2022-08-14T11:09:31.532Z,21.74
2022-08-14T11:12:39.895Z,21.78
2022-08-14T11:15:32.461Z,22.02
2022-08-14T11:18:20.539Z,22.32
2022-08-14T11:21:14.090Z,22.55
2022-08-14T11:24:50.669Z,22.63
2022-08-14T11:27:09.030Z,22.56
2022-08-14T11:30:00.527Z,22.53
2022-08-14T11:32:59.421Z,22.69
2022-08-14T11:35:48.506Z,22.85
2022-08-14T11:38:29.657Z,22.91
2022-08-14T11:41:20.435Z,23.01
2022-08-14T11:44:13.107Z,23.11
2022-08-14T11:47:07.796Z,23.27
2022-08-14T11:49:51.926Z,23.07
2022-08-14T11:52:42.764Z,23.00
2022-08-14T11:55:26.272Z,22.90
2022-08-14T11:58:24.399Z,23.03
2022-08-14T12:01:22.421Z,23.16
2022-08-14T12:04:33.083Z,23.00
2022-08-14T12:07:16.420Z,22.69
2022-08-14T12:10:26.581Z,22.37
2022-08-14T12:13:17.608Z,22.27
2022-08-14T12:16:15.249Z,22.36
2022-08-14T12:19:04.806Z,22.26
2022-08-14T12:21:57.794Z,22.20
2022-08-14T12:24:40.076Z,22.10
2022-08-14T12:27:26.795Z,22.06
2022-08-14T12:30:13.131Z,22.05
2022-08-14T12:33:02.546Z,22.16
2022-08-14T12:35:50.665Z,22.37
2022-08-14T12:38:54.938Z,22.69
2022-08-14T12:41:45.051Z,22.65
2022-08-14T12:44:48.923Z,22.69
2022-08-14T12:47:34.705Z,22.72
2022-08-14T12:50:23.007Z,22.77
2022-08-14T12:53:14.432Z,22.85
2022-08-14T12:56:21.590Z,23.00
2022-08-14T12:59:11.115Z,23.08
2022-08-14T13:02:08.718Z,23.22
2022-08-14T13:04:57.216Z,23.21
2022-08-14T13:07:49.211Z,23.21
2022-08-14T13:10:51.197Z,23.07
2022-08-14T13:13:44.625Z,22.73
2022-08-14T13:16:33.699Z,22.61
2022-08-14T13:19:29.397Z,22.50
2022-08-14T13:22:19.554Z,22.44
2022-08-14T13:25:21.828Z,22.17
2022-08-14T13:28:11.086Z,22.18
2022-08-14T13:31:29.950Z,22.34
2022-08-14T13:34:17.704Z,22.39
2022-08-14T13:37:07.306Z,22.44
2022-08-14T13:39:57.307Z,22.48
2022-08-14T13:42:57.072Z,22.66
2022-08-14T13:46:00.881Z,22.43
2022-08-14T13:48:46.807Z,22.18
2022-08-14T13:51:32.748Z,22.09
2022-08-14T13:54:26.214Z,21.96
2022-08-14T13:57:13.482Z,21.74
2022-08-14T14:00:13.744Z,21.64
2022-08-14T14:03:05.767Z,21.41
2022-08-14T14:05:53.065Z,21.11
2022-08-14T14:08:47.887Z,21.19
2022-08-14T14:11:29.891Z,21.14
2022-08-14T14:14:29.746Z,21.28
2022-08-14T14:17:24.546Z,21.48
2022-08-14T14:20:15.100Z,21.57
2022-08-14T14:23:17.683Z,21.71
2022-08-14T14:26:05.515Z,21.89
2022-08-14T14:28:51.626Z,22.14
2022-08-14T14:31:43.782Z,22.61
2022-08-14T14:34:30.970Z,22.78
2022-08-14T14:37:20.147Z,22.86
2022-08-14T14:40:51.461Z,23.00
2022-08-14T14:43:18.921Z,23.09
2022-08-14T14:46:07.256Z,23.22
2022-08-14T14:48:57.802Z,23.32
2022-08-14T14:51:41.832Z,23.26
2022-08-14T14:54:39.079Z,23.25
2022-08-14T14:57:26.694Z,23.23
2022-08-14T15:00:30.929Z,23.20
2022-08-14T15:03:26.813Z,23.21
2022-08-14T15:06:17.552Z,23.34
2022-08-14T15:09:00.032Z,23.46
2022-08-14T15:11:48.788Z,23.38
2022-08-14T15:14:54.975Z,23.28
2022-08-14T15:17:42.791Z,23.28
2022-08-14T15:20:30.651Z,23.22
2022-08-14T15:23:22.378Z,23.26
2022-08-14T15:26:05.931Z,23.35
2022-08-14T15:29:02.764Z,23.32
2022-08-14T15:31:45.916Z,23.35
2022-08-14T15:34:50.927Z,23.51
2022-08-14T15:37:36.541Z,23.56
2022-08-14T15:43:36.401Z,23.68
2022-08-14T15:46:42.997Z,23.60
2022-08-14T15:49:34.580Z,23.57
2022-08-14T15:52:32.630Z,23.56
2022-08-14T15:55:19.131Z,23.62
2022-08-14T15:58:14.279Z,23.72
2022-08-14T16:01:26.432Z,23.72
2022-08-14T16:04:27.953Z,23.75
2022-08-14T16:07:09.055Z,23.73
2022-08-14T16:10:27.344Z,23.79
2022-08-14T16:12:58.078Z,23.78
2022-08-14T16:15:53.399Z,23.77
2022-08-14T16:18:37.510Z,23.70
2022-08-14T16:21:31.699Z,23.68
2022-08-14T16:24:27.805Z,23.70
2022-08-14T16:27:39.327Z,23.73
2022-08-14T16:30:27.771Z,23.66
2022-08-14T16:33:28.075Z,23.50
2022-08-14T16:36:30.294Z,23.49
2022-08-14T16:39:18.947Z,23.42
2022-08-14T16:42:00.123Z,23.42
2022-08-14T16:44:47.817Z,23.48
2022-08-14T16:47:34.927Z,23.49
2022-08-14T16:50:40.370Z,23.56
2022-08-14T16:53:25.649Z,23.61
2022-08-14T16:56:30.653Z,23.52
2022-08-14T16:59:30.712Z,23.47
2022-08-14T17:02:57.722Z,23.48
2022-08-14T17:05:49.384Z,23.55
2022-08-14T17:08:41.882Z,23.52
2022-08-14T17:11:37.451Z,23.53
2022-08-14T17:14:17.843Z,23.61
2022-08-14T17:17:06.018Z,23.60
2022-08-14T17:19:47.859Z,23.54
2022-08-14T17:22:53.918Z,23.43
2022-08-14T17:25:36.942Z,23.35
2022-08-14T17:28:51.802Z,23.32
2022-08-14T17:31:57.880Z,23.33
2022-08-14T17:34:53.989Z,23.35
2022-08-14T17:37:40.431Z,23.23
2022-08-14T17:40:36.991Z,23.17
2022-08-14T17:43:17.942Z,23.10
2022-08-14T17:46:06.554Z,23.08
2022-08-14T17:49:14.753Z,23.09
2022-08-14T17:52:17.072Z,23.05
2022-08-14T17:55:00.859Z,22.95
2022-08-14T17:57:52.819Z,23.01
2022-08-14T18:00:35.321Z,23.05
2022-08-14T18:03:49.863Z,23.09
2022-08-14T18:07:08.801Z,23.10
2022-08-14T18:09:57.261Z,23.19
2022-08-14T18:12:47.266Z,23.21
2022-08-14T18:15:37.089Z,23.26
2022-08-14T18:18:24.451Z,23.31
2022-08-14T18:21:39.879Z,23.30
2022-08-14T18:24:29.380Z,23.27
2022-08-14T18:27:22.801Z,23.31
2022-08-14T18:30:33.415Z,23.33
2022-08-14T18:33:27.028Z,23.26
2022-08-14T18:36:55.484Z,23.30
2022-08-14T18:40:02.285Z,23.26
2022-08-14T18:42:54.299Z,23.22
2022-08-14T18:45:43.116Z,23.27
2022-08-14T18:48:50.934Z,23.18
2022-08-14T18:51:45.323Z,23.15
2022-08-14T18:54:35.953Z,23.07
2022-08-14T18:57:20.273Z,23.07
2022-08-14T19:00:35.909Z,23.04
2022-08-14T19:03:48.933Z,23.01
2022-08-14T19:06:56.148Z,22.97
2022-08-14T19:10:01.492Z,22.98
2022-08-14T19:13:02.900Z,22.98
2022-08-14T19:15:56.522Z,22.90
2022-08-14T19:19:02.311Z,22.86
2022-08-14T19:21:48.163Z,22.88
2022-08-14T19:24:50.228Z,22.94
2022-08-14T19:27:37.382Z,22.95
2022-08-14T19:30:30.307Z,22.87
2022-08-14T19:33:11.034Z,22.85
2022-08-14T19:36:28.906Z,22.91
2022-08-14T19:39:16.087Z,22.93
2022-08-14T19:42:10.570Z,22.78
2022-08-14T19:44:55.226Z,22.73
2022-08-14T19:47:46.252Z,22.56
2022-08-14T19:50:38.699Z,22.44
2022-08-14T19:53:29.725Z,22.31
2022-08-14T19:56:11.215Z,22.19
2022-08-14T19:59:16.963Z,22.06
2022-08-14T20:02:12.940Z,21.97
2022-08-14T20:05:12.938Z,21.81
2022-08-14T20:08:00.768Z,21.69
2022-08-14T20:11:05.013Z,21.64
2022-08-14T20:14:09.348Z,21.70
2022-08-14T20:17:06.999Z,21.63
2022-08-14T20:19:49.984Z,21.58
2022-08-14T20:22:43.867Z,21.53
2022-08-14T20:25:29.578Z,21.51
2022-08-14T20:28:30.518Z,21.50
2022-08-14T20:31:24.126Z,21.43
2022-08-14T20:34:35.614Z,21.47
2022-08-14T20:37:22.465Z,21.41
2022-08-14T20:40:36.437Z,21.41
2022-08-14T20:43:56.916Z,21.37
2022-08-14T20:46:45.750Z,21.35
2022-08-14T20:49:38.168Z,21.36
2022-08-14T20:52:21.149Z,21.32
2022-08-14T20:55:53.685Z,21.33
2022-08-14T20:58:44.364Z,21.35
2022-08-14T21:01:33.779Z,21.31
2022-08-14T21:04:47.334Z,21.29
2022-08-14T21:07:37.320Z,21.25
2022-08-14T21:10:35.604Z,21.24
2022-08-14T21:14:20.191Z,21.20
2022-08-14T21:16:33.472Z,21.17
2022-08-14T21:19:31.058Z,21.16
2022-08-14T21:22:13.134Z,21.23
2022-08-14T21:25:06.246Z,21.13
2022-08-14T21:27:56.837Z,21.15
2022-08-14T21:30:52.184Z,21.22
2022-08-14T21:33:34.759Z,21.15
2022-08-14T21:36:24.407Z,21.12
2022-08-14T21:39:13.913Z,20.98
2022-08-14T21:42:05.746Z,20.95
2022-08-14T21:44:50.919Z,20.93
2022-08-14T21:47:39.289Z,20.90
2022-08-14T21:50:39.447Z,20.88
2022-08-14T21:53:34.642Z,20.87
2022-08-14T21:56:15.418Z,20.88
2022-08-14T21:59:06.186Z,20.86
2022-08-14T22:02:00.726Z,20.80
2022-08-14T22:05:00.055Z,20.86
2022-08-14T22:07:51.038Z,20.81
2022-08-14T22:10:36.249Z,20.74
2022-08-14T22:13:32.416Z,20.65
2022-08-14T22:17:00.773Z,20.67
2022-08-14T22:19:34.695Z,20.70
2022-08-14T22:22:27.299Z,20.74
2022-08-14T22:25:17.455Z,20.70
2022-08-14T22:27:59.289Z,20.69
2022-08-14T22:30:46.067Z,20.54
2022-08-14T22:33:31.825Z,20.48
2022-08-14T22:36:42.344Z,20.38
2022-08-14T22:40:15.357Z,20.37
2022-08-14T22:43:00.631Z,20.45
2022-08-14T22:45:43.186Z,20.46
2022-08-14T22:48:43.390Z,20.55
2022-08-14T22:51:28.640Z,20.40
2022-08-14T22:54:52.612Z,20.42
2022-08-14T22:57:18.489Z,20.25
2022-08-14T23:00:08.080Z,20.32
2022-08-14T23:03:00.000Z,20.26
2022-08-14T23:05:52.950Z,20.28
2022-08-14T23:09:01.722Z,20.22
2022-08-14T23:11:45.088Z,20.32
2022-08-14T23:14:34.223Z,20.29
2022-08-14T23:17:16.488Z,20.32
2022-08-14T23:20:08.512Z,20.32
2022-08-14T23:23:01.654Z,20.36
2022-08-14T23:25:58.517Z,20.40
2022-08-14T23:28:58.296Z,20.28
2022-08-14T23:31:49.220Z,20.32
2022-08-14T23:34:32.539Z,20.32
2022-08-14T23:37:27.011Z,20.23
2022-08-14T23:40:26.689Z,20.18
2022-08-14T23:43:23.403Z,20.06
2022-08-14T23:46:12.888Z,20.12
2022-08-14T23:49:04.086Z,19.98
2022-08-14T23:51:47.615Z,19.95
2022-08-14T23:54:48.944Z,19.78
2022-08-14T23:57:31.495Z,19.74
